sensor_id;sensor_type;location;lat;lon;timestamp;P1;durP1;ratioP1;P2;durP2;ratioP2
75552;SDS011;64136;53.118;17.996;2023-02-20T00:00:28;4.70;;;1.40;;
75552;SDS011;64136;53.118;17.996;2023-02-20T00:02:56;5.30;;;1.40;;
75552;SDS011;64136;53.118;17.996;2023-02-20T00:05:23;4.10;;;1.00;;
75552;SDS011;64136;53.118;17.996;2023-02-20T00:07:50;4.40;;;1.20;;
75552;SDS011;64136;53.118;17.996;2023-02-20T00:10:17;2.80;;;1.00;;
75552;SDS011;64136;53.118;17.996;2023-02-20T00:12:43;1.70;;;0.60;;
75552;SDS011;64136;53.118;17.996;2023-02-20T00:15:10;2.90;;;1.00;;
75552;SDS011;64136;53.118;17.996;2023-02-20T00:17:41;4.90;;;1.30;;
75552;SDS011;64136;53.118;17.996;2023-02-20T00:20:08;3.20;;;0.90;;
75552;SDS011;64136;53.118;17.996;2023-02-20T00:22:35;2.60;;;1.00;;
75552;SDS011;64136;53.118;17.996;2023-02-20T00:25:01;3.30;;;0.70;;
75552;SDS011;64136;53.118;17.996;2023-02-20T00:27:27;1.80;;;0.90;;
75552;SDS011;64136;53.118;17.996;2023-02-20T00:29:54;2.50;;;0.80;;
75552;SDS011;64136;53.118;17.996;2023-02-20T00:32:20;5.30;;;0.90;;
75552;SDS011;64136;53.118;17.996;2023-02-20T00:34:46;2.30;;;0.60;;
75552;SDS011;64136;53.118;17.996;2023-02-20T00:37:13;4.00;;;1.00;;
75552;SDS011;64136;53.118;17.996;2023-02-20T00:39:39;5.20;;;1.30;;
75552;SDS011;64136;53.118;17.996;2023-02-20T00:42:06;1.60;;;0.70;;
75552;SDS011;64136;53.118;17.996;2023-02-20T00:44:32;3.80;;;0.80;;
75552;SDS011;64136;53.118;17.996;2023-02-20T00:46:58;2.70;;;0.80;;
75552;SDS011;64136;53.118;17.996;2023-02-20T00:49:25;2.10;;;1.10;;
75552;SDS011;64136;53.118;17.996;2023-02-20T00:51:51;4.10;;;0.60;;
75552;SDS011;64136;53.118;17.996;2023-02-20T00:54:17;1.90;;;0.40;;
75552;SDS011;64136;53.118;17.996;2023-02-20T00:56:44;2.30;;;0.70;;
75552;SDS011;64136;53.118;17.996;2023-02-20T00:59:10;2.60;;;0.70;;
75552;SDS011;64136;53.118;17.996;2023-02-20T01:01:37;2.10;;;0.80;;
75552;SDS011;64136;53.118;17.996;2023-02-20T01:04:04;2.40;;;0.60;;
75552;SDS011;64136;53.118;17.996;2023-02-20T01:06:30;2.30;;;0.60;;
75552;SDS011;64136;53.118;17.996;2023-02-20T01:08:56;1.40;;;0.80;;
75552;SDS011;64136;53.118;17.996;2023-02-20T01:11:23;3.50;;;0.80;;
75552;SDS011;64136;53.118;17.996;2023-02-20T01:13:49;3.30;;;0.90;;
75552;SDS011;64136;53.118;17.996;2023-02-20T01:16:15;0.80;;;0.50;;
75552;SDS011;64136;53.118;17.996;2023-02-20T01:18:42;0.80;;;0.50;;
75552;SDS011;64136;53.118;17.996;2023-02-20T01:21:09;2.40;;;0.60;;
75552;SDS011;64136;53.118;17.996;2023-02-20T01:23:36;2.10;;;0.70;;
75552;SDS011;64136;53.118;17.996;2023-02-20T01:26:02;5.50;;;0.80;;
75552;SDS011;64136;53.118;17.996;2023-02-20T01:28:28;2.70;;;0.80;;
75552;SDS011;64136;53.118;17.996;2023-02-20T01:30:55;3.60;;;1.10;;
75552;SDS011;64136;53.118;17.996;2023-02-20T01:33:21;3.70;;;0.90;;
75552;SDS011;64136;53.118;17.996;2023-02-20T01:35:47;4.10;;;1.10;;
75552;SDS011;64136;53.118;17.996;2023-02-20T01:38:14;4.50;;;1.00;;
75552;SDS011;64136;53.118;17.996;2023-02-20T01:40:46;4.40;;;1.10;;
75552;SDS011;64136;53.118;17.996;2023-02-20T01:43:14;2.50;;;0.80;;
75552;SDS011;64136;53.118;17.996;2023-02-20T01:45:42;3.50;;;1.00;;
75552;SDS011;64136;53.118;17.996;2023-02-20T01:48:18;2.60;;;1.10;;
75552;SDS011;64136;53.118;17.996;2023-02-20T01:50:49;2.30;;;0.70;;
75552;SDS011;64136;53.118;17.996;2023-02-20T01:53:20;2.60;;;0.70;;
75552;SDS011;64136;53.118;17.996;2023-02-20T01:55:50;2.70;;;0.80;;
75552;SDS011;64136;53.118;17.996;2023-02-20T01:58:22;1.70;;;0.90;;
75552;SDS011;64136;53.118;17.996;2023-02-20T02:00:54;3.30;;;0.80;;
75552;SDS011;64136;53.118;17.996;2023-02-20T02:03:24;4.50;;;1.10;;
75552;SDS011;64136;53.118;17.996;2023-02-20T02:05:53;2.50;;;0.90;;
75552;SDS011;64136;53.118;17.996;2023-02-20T02:08:25;4.10;;;1.00;;
75552;SDS011;64136;53.118;17.996;2023-02-20T02:13:37;6.00;;;1.60;;
75552;SDS011;64136;53.118;17.996;2023-02-20T02:16:43;1.20;;;0.80;;
75552;SDS011;64136;53.118;17.996;2023-02-20T02:27:53;2.40;;;0.50;;
75552;SDS011;64136;53.118;17.996;2023-02-20T02:30:46;1.30;;;0.40;;
75552;SDS011;64136;53.118;17.996;2023-02-20T02:36:23;2.30;;;0.90;;
75552;SDS011;64136;53.118;17.996;2023-02-20T02:39:06;3.90;;;0.60;;
75552;SDS011;64136;53.118;17.996;2023-02-20T02:44:39;1.00;;;0.50;;
75552;SDS011;64136;53.118;17.996;2023-02-20T02:52:38;3.40;;;0.80;;
75552;SDS011;64136;53.118;17.996;2023-02-20T02:55:09;2.90;;;0.80;;
75552;SDS011;64136;53.118;17.996;2023-02-20T02:57:35;4.60;;;1.10;;
75552;SDS011;64136;53.118;17.996;2023-02-20T03:00:04;3.70;;;1.10;;
75552;SDS011;64136;53.118;17.996;2023-02-20T03:02:45;2.50;;;0.50;;
75552;SDS011;64136;53.118;17.996;2023-02-20T03:05:21;4.60;;;0.60;;
75552;SDS011;64136;53.118;17.996;2023-02-20T03:07:52;1.70;;;0.80;;
75552;SDS011;64136;53.118;17.996;2023-02-20T03:10:23;4.60;;;1.00;;
75552;SDS011;64136;53.118;17.996;2023-02-20T03:12:58;2.60;;;1.00;;
75552;SDS011;64136;53.118;17.996;2023-02-20T03:15:29;3.00;;;0.70;;
75552;SDS011;64136;53.118;17.996;2023-02-20T03:18:04;5.10;;;1.20;;
75552;SDS011;64136;53.118;17.996;2023-02-20T03:20:38;2.90;;;0.90;;
75552;SDS011;64136;53.118;17.996;2023-02-20T03:23:10;2.60;;;0.90;;
75552;SDS011;64136;53.118;17.996;2023-02-20T03:28:26;1.80;;;0.60;;
75552;SDS011;64136;53.118;17.996;2023-02-20T03:31:01;1.60;;;0.80;;
75552;SDS011;64136;53.118;17.996;2023-02-20T03:33:37;2.30;;;1.00;;
75552;SDS011;64136;53.118;17.996;2023-02-20T03:36:12;2.60;;;1.00;;
75552;SDS011;64136;53.118;17.996;2023-02-20T03:38:51;3.10;;;0.90;;
75552;SDS011;64136;53.118;17.996;2023-02-20T03:41:27;5.40;;;0.80;;
75552;SDS011;64136;53.118;17.996;2023-02-20T03:44:09;2.90;;;1.30;;
75552;SDS011;64136;53.118;17.996;2023-02-20T03:46:40;2.30;;;0.80;;
75552;SDS011;64136;53.118;17.996;2023-02-20T03:49:10;1.50;;;0.90;;
75552;SDS011;64136;53.118;17.996;2023-02-20T03:51:40;2.30;;;1.10;;
75552;SDS011;64136;53.118;17.996;2023-02-20T03:54:18;3.70;;;1.10;;
75552;SDS011;64136;53.118;17.996;2023-02-20T03:56:46;4.80;;;0.90;;
75552;SDS011;64136;53.118;17.996;2023-02-20T03:59:22;2.40;;;1.00;;
75552;SDS011;64136;53.118;17.996;2023-02-20T04:01:53;1.30;;;0.80;;
75552;SDS011;64136;53.118;17.996;2023-02-20T04:04:28;1.30;;;0.80;;
75552;SDS011;64136;53.118;17.996;2023-02-20T04:07:00;2.10;;;0.90;;
75552;SDS011;64136;53.118;17.996;2023-02-20T04:09:32;2.60;;;1.10;;
75552;SDS011;64136;53.118;17.996;2023-02-20T04:12:04;4.50;;;0.80;;
75552;SDS011;64136;53.118;17.996;2023-02-20T04:14:38;3.30;;;1.00;;
75552;SDS011;64136;53.118;17.996;2023-02-20T04:17:06;3.90;;;1.40;;
75552;SDS011;64136;53.118;17.996;2023-02-20T04:19:39;3.50;;;2.00;;
75552;SDS011;64136;53.118;17.996;2023-02-20T04:22:07;5.00;;;1.00;;
75552;SDS011;64136;53.118;17.996;2023-02-20T04:24:43;2.30;;;1.00;;
75552;SDS011;64136;53.118;17.996;2023-02-20T04:27:14;3.60;;;1.30;;
75552;SDS011;64136;53.118;17.996;2023-02-20T04:29:46;3.40;;;0.90;;
75552;SDS011;64136;53.118;17.996;2023-02-20T04:32:12;2.50;;;0.70;;
75552;SDS011;64136;53.118;17.996;2023-02-20T04:34:39;5.10;;;1.60;;
75552;SDS011;64136;53.118;17.996;2023-02-20T04:37:14;2.90;;;1.50;;
75552;SDS011;64136;53.118;17.996;2023-02-20T04:39:46;3.80;;;1.00;;
75552;SDS011;64136;53.118;17.996;2023-02-20T04:42:13;0.80;;;0.60;;
75552;SDS011;64136;53.118;17.996;2023-02-20T04:44:39;1.90;;;0.70;;
75552;SDS011;64136;53.118;17.996;2023-02-20T04:47:10;1.70;;;1.00;;
75552;SDS011;64136;53.118;17.996;2023-02-20T04:49:40;5.70;;;2.20;;
75552;SDS011;64136;53.118;17.996;2023-02-20T04:52:07;2.50;;;0.70;;
75552;SDS011;64136;53.118;17.996;2023-02-20T04:54:34;3.90;;;0.70;;
75552;SDS011;64136;53.118;17.996;2023-02-20T04:57:01;2.70;;;1.10;;
75552;SDS011;64136;53.118;17.996;2023-02-20T04:59:27;1.70;;;0.80;;
75552;SDS011;64136;53.118;17.996;2023-02-20T05:01:54;3.60;;;0.90;;
75552;SDS011;64136;53.118;17.996;2023-02-20T05:04:21;7.80;;;1.20;;
75552;SDS011;64136;53.118;17.996;2023-02-20T05:06:49;2.30;;;0.90;;
75552;SDS011;64136;53.118;17.996;2023-02-20T05:09:17;2.10;;;0.80;;
75552;SDS011;64136;53.118;17.996;2023-02-20T05:11:45;4.90;;;1.40;;
75552;SDS011;64136;53.118;17.996;2023-02-20T05:14:11;2.70;;;0.80;;
75552;SDS011;64136;53.118;17.996;2023-02-20T05:16:38;4.30;;;0.90;;
75552;SDS011;64136;53.118;17.996;2023-02-20T05:19:12;3.30;;;1.30;;
75552;SDS011;64136;53.118;17.996;2023-02-20T05:21:43;3.00;;;1.00;;
75552;SDS011;64136;53.118;17.996;2023-02-20T05:24:14;2.80;;;0.80;;
75552;SDS011;64136;53.118;17.996;2023-02-20T05:26:41;3.90;;;1.20;;
75552;SDS011;64136;53.118;17.996;2023-02-20T05:29:07;1.60;;;0.80;;
75552;SDS011;64136;53.118;17.996;2023-02-20T05:31:37;2.00;;;1.00;;
75552;SDS011;64136;53.118;17.996;2023-02-20T05:34:04;4.30;;;1.10;;
75552;SDS011;64136;53.118;17.996;2023-02-20T05:36:31;8.60;;;1.20;;
75552;SDS011;64136;53.118;17.996;2023-02-20T05:38:58;1.60;;;1.00;;
75552;SDS011;64136;53.118;17.996;2023-02-20T05:41:24;2.50;;;1.10;;
75552;SDS011;64136;53.118;17.996;2023-02-20T05:43:50;2.20;;;1.20;;
75552;SDS011;64136;53.118;17.996;2023-02-20T05:46:19;3.00;;;1.30;;
75552;SDS011;64136;53.118;17.996;2023-02-20T05:48:49;3.80;;;1.60;;
75552;SDS011;64136;53.118;17.996;2023-02-20T05:51:21;4.40;;;1.40;;
75552;SDS011;64136;53.118;17.996;2023-02-20T05:53:49;3.90;;;1.40;;
75552;SDS011;64136;53.118;17.996;2023-02-20T05:56:16;1.60;;;1.00;;
75552;SDS011;64136;53.118;17.996;2023-02-20T05:58:43;4.50;;;1.10;;
75552;SDS011;64136;53.118;17.996;2023-02-20T06:01:17;1.20;;;0.70;;
75552;SDS011;64136;53.118;17.996;2023-02-20T06:03:45;3.70;;;1.50;;
75552;SDS011;64136;53.118;17.996;2023-02-20T06:06:11;5.80;;;1.30;;
75552;SDS011;64136;53.118;17.996;2023-02-20T06:08:38;2.80;;;1.50;;
75552;SDS011;64136;53.118;17.996;2023-02-20T06:11:06;3.20;;;1.50;;
75552;SDS011;64136;53.118;17.996;2023-02-20T06:13:32;7.10;;;1.50;;
75552;SDS011;64136;53.118;17.996;2023-02-20T06:16:22;3.50;;;1.40;;
75552;SDS011;64136;53.118;17.996;2023-02-20T06:18:51;2.20;;;1.00;;
75552;SDS011;64136;53.118;17.996;2023-02-20T06:21:18;3.10;;;1.50;;
75552;SDS011;64136;53.118;17.996;2023-02-20T06:23:48;5.10;;;1.80;;
75552;SDS011;64136;53.118;17.996;2023-02-20T06:26:16;3.40;;;1.70;;
75552;SDS011;64136;53.118;17.996;2023-02-20T06:28:43;3.60;;;1.90;;
75552;SDS011;64136;53.118;17.996;2023-02-20T06:31:10;2.60;;;1.60;;
75552;SDS011;64136;53.118;17.996;2023-02-20T06:33:37;2.80;;;1.40;;
75552;SDS011;64136;53.118;17.996;2023-02-20T06:36:03;4.10;;;1.60;;
75552;SDS011;64136;53.118;17.996;2023-02-20T06:38:30;4.10;;;1.90;;
75552;SDS011;64136;53.118;17.996;2023-02-20T06:40:56;3.60;;;1.50;;
75552;SDS011;64136;53.118;17.996;2023-02-20T06:43:23;5.10;;;2.50;;
75552;SDS011;64136;53.118;17.996;2023-02-20T06:45:49;6.10;;;1.80;;
75552;SDS011;64136;53.118;17.996;2023-02-20T06:48:15;3.90;;;1.70;;
75552;SDS011;64136;53.118;17.996;2023-02-20T06:50:42;6.20;;;1.90;;
75552;SDS011;64136;53.118;17.996;2023-02-20T06:53:08;4.40;;;2.10;;
75552;SDS011;64136;53.118;17.996;2023-02-20T06:55:35;2.40;;;1.80;;
75552;SDS011;64136;53.118;17.996;2023-02-20T06:58:01;4.00;;;2.30;;
75552;SDS011;64136;53.118;17.996;2023-02-20T07:00:27;6.40;;;2.70;;
75552;SDS011;64136;53.118;17.996;2023-02-20T07:02:54;9.90;;;3.80;;
75552;SDS011;64136;53.118;17.996;2023-02-20T07:05:20;7.70;;;2.30;;
75552;SDS011;64136;53.118;17.996;2023-02-20T07:07:46;5.10;;;1.90;;
75552;SDS011;64136;53.118;17.996;2023-02-20T07:10:13;7.20;;;2.20;;
75552;SDS011;64136;53.118;17.996;2023-02-20T07:12:39;6.90;;;3.00;;
75552;SDS011;64136;53.118;17.996;2023-02-20T07:15:06;3.80;;;1.90;;
75552;SDS011;64136;53.118;17.996;2023-02-20T07:17:33;3.30;;;1.90;;
75552;SDS011;64136;53.118;17.996;2023-02-20T07:19:59;6.70;;;2.40;;
75552;SDS011;64136;53.118;17.996;2023-02-20T07:22:25;3.90;;;2.10;;
75552;SDS011;64136;53.118;17.996;2023-02-20T07:24:52;5.20;;;2.20;;
75552;SDS011;64136;53.118;17.996;2023-02-20T07:27:19;6.70;;;2.90;;
75552;SDS011;64136;53.118;17.996;2023-02-20T07:29:50;6.00;;;3.10;;
75552;SDS011;64136;53.118;17.996;2023-02-20T07:32:17;4.60;;;2.10;;
75552;SDS011;64136;53.118;17.996;2023-02-20T07:34:45;4.70;;;2.30;;
75552;SDS011;64136;53.118;17.996;2023-02-20T07:37:13;4.80;;;2.60;;
75552;SDS011;64136;53.118;17.996;2023-02-20T07:39:40;6.90;;;2.30;;
75552;SDS011;64136;53.118;17.996;2023-02-20T07:42:06;6.00;;;2.70;;
75552;SDS011;64136;53.118;17.996;2023-02-20T07:44:39;4.70;;;3.10;;
75552;SDS011;64136;53.118;17.996;2023-02-20T07:47:06;3.80;;;2.40;;
75552;SDS011;64136;53.118;17.996;2023-02-20T07:49:32;12.60;;;2.40;;
75552;SDS011;64136;53.118;17.996;2023-02-20T07:51:59;6.90;;;3.20;;
75552;SDS011;64136;53.118;17.996;2023-02-20T07:54:25;3.20;;;1.80;;
75552;SDS011;64136;53.118;17.996;2023-02-20T07:56:52;6.40;;;3.40;;
75552;SDS011;64136;53.118;17.996;2023-02-20T07:59:20;10.30;;;4.50;;
75552;SDS011;64136;53.118;17.996;2023-02-20T08:01:46;10.70;;;5.50;;
75552;SDS011;64136;53.118;17.996;2023-02-20T08:04:13;6.20;;;3.00;;
75552;SDS011;64136;53.118;17.996;2023-02-20T08:06:40;5.30;;;3.00;;
75552;SDS011;64136;53.118;17.996;2023-02-20T08:09:06;7.20;;;2.90;;
75552;SDS011;64136;53.118;17.996;2023-02-20T08:11:33;5.80;;;3.30;;
75552;SDS011;64136;53.118;17.996;2023-02-20T08:14:01;7.80;;;2.70;;
75552;SDS011;64136;53.118;17.996;2023-02-20T08:18:55;6.30;;;3.10;;
75552;SDS011;64136;53.118;17.996;2023-02-20T08:21:22;16.50;;;5.10;;
75552;SDS011;64136;53.118;17.996;2023-02-20T08:23:48;4.00;;;2.90;;
75552;SDS011;64136;53.118;17.996;2023-02-20T08:26:15;8.70;;;3.60;;
75552;SDS011;64136;53.118;17.996;2023-02-20T08:28:41;6.50;;;3.90;;
75552;SDS011;64136;53.118;17.996;2023-02-20T08:31:07;9.60;;;3.40;;
75552;SDS011;64136;53.118;17.996;2023-02-20T08:33:34;7.30;;;2.90;;
75552;SDS011;64136;53.118;17.996;2023-02-20T08:36:00;7.90;;;5.40;;
75552;SDS011;64136;53.118;17.996;2023-02-20T08:38:31;10.30;;;4.90;;
75552;SDS011;64136;53.118;17.996;2023-02-20T08:41:02;7.20;;;4.30;;
75552;SDS011;64136;53.118;17.996;2023-02-20T08:43:29;8.60;;;4.60;;
75552;SDS011;64136;53.118;17.996;2023-02-20T08:45:55;9.80;;;5.40;;
75552;SDS011;64136;53.118;17.996;2023-02-20T08:48:22;5.40;;;4.00;;
75552;SDS011;64136;53.118;17.996;2023-02-20T08:50:48;7.30;;;4.60;;
75552;SDS011;64136;53.118;17.996;2023-02-20T08:53:15;8.60;;;4.20;;
75552;SDS011;64136;53.118;17.996;2023-02-20T08:55:42;6.40;;;3.40;;
75552;SDS011;64136;53.118;17.996;2023-02-20T08:58:08;6.70;;;3.80;;
75552;SDS011;64136;53.118;17.996;2023-02-20T09:00:35;9.20;;;4.40;;
75552;SDS011;64136;53.118;17.996;2023-02-20T09:03:02;9.60;;;6.10;;
75552;SDS011;64136;53.118;17.996;2023-02-20T09:05:32;5.40;;;3.80;;
75552;SDS011;64136;53.118;17.996;2023-02-20T09:08:00;7.60;;;4.80;;
75552;SDS011;64136;53.118;17.996;2023-02-20T09:10:27;7.40;;;4.10;;
75552;SDS011;64136;53.118;17.996;2023-02-20T09:12:53;5.90;;;3.60;;
75552;SDS011;64136;53.118;17.996;2023-02-20T09:15:19;7.80;;;4.80;;
75552;SDS011;64136;53.118;17.996;2023-02-20T09:17:52;9.10;;;4.70;;
75552;SDS011;64136;53.118;17.996;2023-02-20T09:20:21;5.80;;;3.00;;
75552;SDS011;64136;53.118;17.996;2023-02-20T09:22:48;6.60;;;4.40;;
75552;SDS011;64136;53.118;17.996;2023-02-20T09:25:28;4.90;;;3.00;;
75552;SDS011;64136;53.118;17.996;2023-02-20T09:27:58;6.50;;;4.80;;
75552;SDS011;64136;53.118;17.996;2023-02-20T09:30:24;6.60;;;4.10;;
75552;SDS011;64136;53.118;17.996;2023-02-20T09:32:53;9.00;;;5.10;;
75552;SDS011;64136;53.118;17.996;2023-02-20T09:35:24;5.90;;;3.90;;
75552;SDS011;64136;53.118;17.996;2023-02-20T09:37:53;5.20;;;2.90;;
75552;SDS011;64136;53.118;17.996;2023-02-20T09:40:20;7.30;;;3.70;;
75552;SDS011;64136;53.118;17.996;2023-02-20T09:42:58;8.70;;;4.20;;
75552;SDS011;64136;53.118;17.996;2023-02-20T09:45:40;6.30;;;3.60;;
75552;SDS011;64136;53.118;17.996;2023-02-20T09:48:16;9.10;;;4.40;;
75552;SDS011;64136;53.118;17.996;2023-02-20T09:51:01;6.10;;;4.40;;
75552;SDS011;64136;53.118;17.996;2023-02-20T09:56:25;9.70;;;6.00;;
75552;SDS011;64136;53.118;17.996;2023-02-20T09:58:57;8.90;;;5.20;;
75552;SDS011;64136;53.118;17.996;2023-02-20T10:01:26;4.60;;;3.40;;
75552;SDS011;64136;53.118;17.996;2023-02-20T10:03:55;7.60;;;4.80;;
75552;SDS011;64136;53.118;17.996;2023-02-20T10:06:30;8.00;;;4.30;;
75552;SDS011;64136;53.118;17.996;2023-02-20T10:08:58;8.30;;;4.00;;
75552;SDS011;64136;53.118;17.996;2023-02-20T10:11:38;6.60;;;4.60;;
75552;SDS011;64136;53.118;17.996;2023-02-20T10:14:33;6.90;;;4.20;;
75552;SDS011;64136;53.118;17.996;2023-02-20T10:17:14;8.90;;;5.40;;
75552;SDS011;64136;53.118;17.996;2023-02-20T10:19:52;5.10;;;3.70;;
75552;SDS011;64136;53.118;17.996;2023-02-20T10:28:03;8.70;;;5.10;;
75552;SDS011;64136;53.118;17.996;2023-02-20T10:30:35;9.90;;;5.30;;
75552;SDS011;64136;53.118;17.996;2023-02-20T10:33:16;7.40;;;5.80;;
75552;SDS011;64136;53.118;17.996;2023-02-20T10:35:56;9.20;;;6.00;;
75552;SDS011;64136;53.118;17.996;2023-02-20T10:38:25;8.00;;;4.50;;
75552;SDS011;64136;53.118;17.996;2023-02-20T10:40:59;10.50;;;5.90;;
75552;SDS011;64136;53.118;17.996;2023-02-20T10:43:51;8.90;;;4.90;;
75552;SDS011;64136;53.118;17.996;2023-02-20T10:46:25;6.50;;;3.70;;
75552;SDS011;64136;53.118;17.996;2023-02-20T10:48:55;8.70;;;4.90;;
75552;SDS011;64136;53.118;17.996;2023-02-20T10:54:06;8.10;;;4.50;;
75552;SDS011;64136;53.118;17.996;2023-02-20T10:56:38;9.70;;;5.60;;
75552;SDS011;64136;53.118;17.996;2023-02-20T10:59:12;9.70;;;6.20;;
75552;SDS011;64136;53.118;17.996;2023-02-20T11:01:47;7.70;;;5.60;;
75552;SDS011;64136;53.118;17.996;2023-02-20T11:04:21;9.90;;;6.30;;
75552;SDS011;64136;53.118;17.996;2023-02-20T11:09:23;9.20;;;4.30;;
75552;SDS011;64136;53.118;17.996;2023-02-20T11:11:51;8.60;;;4.50;;
75552;SDS011;64136;53.118;17.996;2023-02-20T11:14:23;10.90;;;5.80;;
75552;SDS011;64136;53.118;17.996;2023-02-20T11:19:45;8.00;;;4.80;;
75552;SDS011;64136;53.118;17.996;2023-02-20T11:22:13;7.20;;;4.80;;
75552;SDS011;64136;53.118;17.996;2023-02-20T11:24:41;9.10;;;4.50;;
75552;SDS011;64136;53.118;17.996;2023-02-20T11:27:13;10.10;;;5.80;;
75552;SDS011;64136;53.118;17.996;2023-02-20T11:29:45;11.10;;;6.20;;
75552;SDS011;64136;53.118;17.996;2023-02-20T11:32:26;8.10;;;4.50;;
75552;SDS011;64136;53.118;17.996;2023-02-20T11:38:15;10.00;;;5.00;;
75552;SDS011;64136;53.118;17.996;2023-02-20T11:40:44;5.30;;;3.30;;
75552;SDS011;64136;53.118;17.996;2023-02-20T11:43:14;10.50;;;4.80;;
75552;SDS011;64136;53.118;17.996;2023-02-20T11:48:37;10.90;;;6.20;;
75552;SDS011;64136;53.118;17.996;2023-02-20T11:51:31;7.30;;;3.80;;
75552;SDS011;64136;53.118;17.996;2023-02-20T11:54:05;9.80;;;5.40;;
75552;SDS011;64136;53.118;17.996;2023-02-20T11:56:31;9.30;;;5.40;;
75552;SDS011;64136;53.118;17.996;2023-02-20T11:59:12;9.30;;;5.60;;
75552;SDS011;64136;53.118;17.996;2023-02-20T12:01:52;8.10;;;5.10;;
75552;SDS011;64136;53.118;17.996;2023-02-20T12:04:20;12.40;;;7.10;;
75552;SDS011;64136;53.118;17.996;2023-02-20T12:06:49;10.90;;;6.80;;
75552;SDS011;64136;53.118;17.996;2023-02-20T12:09:19;6.30;;;4.10;;
75552;SDS011;64136;53.118;17.996;2023-02-20T12:11:51;12.30;;;6.00;;
75552;SDS011;64136;53.118;17.996;2023-02-20T12:14:23;10.80;;;6.00;;
75552;SDS011;64136;53.118;17.996;2023-02-20T12:19:43;12.40;;;6.60;;
75552;SDS011;64136;53.118;17.996;2023-02-20T12:25:20;16.00;;;8.30;;
75552;SDS011;64136;53.118;17.996;2023-02-20T12:48:02;8.50;;;4.70;;
75552;SDS011;64136;53.118;17.996;2023-02-20T12:50:53;10.90;;;7.00;;
75552;SDS011;64136;53.118;17.996;2023-02-20T12:56:23;15.60;;;8.40;;
75552;SDS011;64136;53.118;17.996;2023-02-20T12:59:15;12.00;;;6.70;;
75552;SDS011;64136;53.118;17.996;2023-02-20T13:01:49;8.70;;;5.10;;
75552;SDS011;64136;53.118;17.996;2023-02-20T13:05:02;8.80;;;6.10;;
75552;SDS011;64136;53.118;17.996;2023-02-20T13:07:38;10.00;;;7.50;;
75552;SDS011;64136;53.118;17.996;2023-02-20T13:12:52;10.30;;;7.00;;
75552;SDS011;64136;53.118;17.996;2023-02-20T13:15:24;11.20;;;6.80;;
75552;SDS011;64136;53.118;17.996;2023-02-20T13:18:18;6.00;;;3.60;;
75552;SDS011;64136;53.118;17.996;2023-02-20T13:21:02;11.90;;;6.80;;
75552;SDS011;64136;53.118;17.996;2023-02-20T13:23:35;11.60;;;6.90;;
75552;SDS011;64136;53.118;17.996;2023-02-20T13:28:54;7.40;;;4.70;;
75552;SDS011;64136;53.118;17.996;2023-02-20T13:31:41;8.60;;;5.00;;
75552;SDS011;64136;53.118;17.996;2023-02-20T13:37:01;13.40;;;5.70;;
75552;SDS011;64136;53.118;17.996;2023-02-20T13:44:54;7.80;;;4.30;;
75552;SDS011;64136;53.118;17.996;2023-02-20T13:47:29;11.60;;;5.90;;
75552;SDS011;64136;53.118;17.996;2023-02-20T13:49:58;8.90;;;5.10;;
75552;SDS011;64136;53.118;17.996;2023-02-20T13:52:44;10.90;;;5.90;;
75552;SDS011;64136;53.118;17.996;2023-02-20T13:55:15;9.70;;;6.50;;
75552;SDS011;64136;53.118;17.996;2023-02-20T14:06:00;10.00;;;4.90;;
75552;SDS011;64136;53.118;17.996;2023-02-20T14:08:36;12.20;;;8.00;;
75552;SDS011;64136;53.118;17.996;2023-02-20T14:11:07;6.40;;;4.80;;
75552;SDS011;64136;53.118;17.996;2023-02-20T14:13:36;8.60;;;4.50;;
75552;SDS011;64136;53.118;17.996;2023-02-20T14:18:49;5.70;;;3.90;;
75552;SDS011;64136;53.118;17.996;2023-02-20T14:21:19;8.20;;;4.80;;
75552;SDS011;64136;53.118;17.996;2023-02-20T14:23:48;6.10;;;3.70;;
75552;SDS011;64136;53.118;17.996;2023-02-20T14:28:48;8.10;;;5.20;;
75552;SDS011;64136;53.118;17.996;2023-02-20T14:31:24;6.90;;;4.20;;
75552;SDS011;64136;53.118;17.996;2023-02-20T14:33:57;9.10;;;6.80;;
75552;SDS011;64136;53.118;17.996;2023-02-20T14:42:19;6.80;;;4.50;;
75552;SDS011;64136;53.118;17.996;2023-02-20T14:44:48;5.50;;;3.70;;
75552;SDS011;64136;53.118;17.996;2023-02-20T14:47:19;7.40;;;5.20;;
75552;SDS011;64136;53.118;17.996;2023-02-20T14:49:45;6.40;;;3.30;;
75552;SDS011;64136;53.118;17.996;2023-02-20T14:52:13;8.60;;;5.20;;
75552;SDS011;64136;53.118;17.996;2023-02-20T14:54:42;5.40;;;3.80;;
75552;SDS011;64136;53.118;17.996;2023-02-20T14:57:22;4.70;;;3.90;;
75552;SDS011;64136;53.118;17.996;2023-02-20T14:59:48;5.20;;;4.20;;
75552;SDS011;64136;53.118;17.996;2023-02-20T15:02:21;6.60;;;3.50;;
75552;SDS011;64136;53.118;17.996;2023-02-20T15:04:53;6.40;;;4.60;;
75552;SDS011;64136;53.118;17.996;2023-02-20T15:07:21;6.40;;;4.20;;
75552;SDS011;64136;53.118;17.996;2023-02-20T15:09:51;5.40;;;3.80;;
75552;SDS011;64136;53.118;17.996;2023-02-20T15:12:21;3.30;;;2.20;;
75552;SDS011;64136;53.118;17.996;2023-02-20T15:14:55;5.80;;;2.50;;
75552;SDS011;64136;53.118;17.996;2023-02-20T15:17:27;7.90;;;4.50;;
75552;SDS011;64136;53.118;17.996;2023-02-20T15:19:55;3.90;;;3.50;;
75552;SDS011;64136;53.118;17.996;2023-02-20T15:22:26;6.40;;;3.80;;
75552;SDS011;64136;53.118;17.996;2023-02-20T15:33:29;8.00;;;4.40;;
75552;SDS011;64136;53.118;17.996;2023-02-20T15:35:57;7.10;;;4.00;;
75552;SDS011;64136;53.118;17.996;2023-02-20T15:38:25;4.60;;;3.70;;
75552;SDS011;64136;53.118;17.996;2023-02-20T15:40:55;8.20;;;3.60;;
75552;SDS011;64136;53.118;17.996;2023-02-20T15:43:23;5.40;;;4.00;;
75552;SDS011;64136;53.118;17.996;2023-02-20T15:45:49;5.80;;;4.10;;
75552;SDS011;64136;53.118;17.996;2023-02-20T15:48:16;6.70;;;4.10;;
75552;SDS011;64136;53.118;17.996;2023-02-20T15:50:42;7.20;;;4.00;;
75552;SDS011;64136;53.118;17.996;2023-02-20T15:53:10;9.40;;;5.60;;
75552;SDS011;64136;53.118;17.996;2023-02-20T15:55:42;8.20;;;4.80;;
75552;SDS011;64136;53.118;17.996;2023-02-20T16:00:59;17.60;;;6.30;;
75552;SDS011;64136;53.118;17.996;2023-02-20T16:03:27;6.30;;;3.60;;
75552;SDS011;64136;53.118;17.996;2023-02-20T16:05:55;8.10;;;5.10;;
75552;SDS011;64136;53.118;17.996;2023-02-20T16:08:25;4.50;;;3.60;;
75552;SDS011;64136;53.118;17.996;2023-02-20T16:10:52;5.70;;;4.60;;
75552;SDS011;64136;53.118;17.996;2023-02-20T16:13:28;5.60;;;3.50;;
75552;SDS011;64136;53.118;17.996;2023-02-20T16:15:56;4.60;;;3.20;;
75552;SDS011;64136;53.118;17.996;2023-02-20T16:18:23;4.90;;;3.60;;
75552;SDS011;64136;53.118;17.996;2023-02-20T16:20:50;3.40;;;2.90;;
75552;SDS011;64136;53.118;17.996;2023-02-20T16:23:16;5.00;;;3.30;;
75552;SDS011;64136;53.118;17.996;2023-02-20T16:25:43;5.70;;;4.00;;
75552;SDS011;64136;53.118;17.996;2023-02-20T16:28:10;5.80;;;3.50;;
75552;SDS011;64136;53.118;17.996;2023-02-20T16:30:39;7.50;;;4.10;;
75552;SDS011;64136;53.118;17.996;2023-02-20T16:33:14;4.70;;;3.80;;
75552;SDS011;64136;53.118;17.996;2023-02-20T16:35:43;4.10;;;2.60;;
75552;SDS011;64136;53.118;17.996;2023-02-20T16:38:11;4.70;;;2.90;;
75552;SDS011;64136;53.118;17.996;2023-02-20T16:40:37;6.30;;;3.90;;
75552;SDS011;64136;53.118;17.996;2023-02-20T16:43:04;2.90;;;2.20;;
75552;SDS011;64136;53.118;17.996;2023-02-20T16:45:31;5.30;;;3.40;;
75552;SDS011;64136;53.118;17.996;2023-02-20T16:47:58;5.50;;;3.50;;
75552;SDS011;64136;53.118;17.996;2023-02-20T16:50:28;5.70;;;3.00;;
75552;SDS011;64136;53.118;17.996;2023-02-20T16:52:56;3.20;;;2.40;;
75552;SDS011;64136;53.118;17.996;2023-02-20T16:56:07;6.80;;;4.40;;